Pretty Lady — 9HVY9 — position and weather

sailwx.info

Track history (hours):
 
Tides and Currents Weather Stations Pressure Air Temp Water Temp Dewpoint Dewpoint Depression Visibility Wind Speed Wind Dir Waves Ship Positions

Pretty Lady

Last reported at 2015-May-01 02:33 UTC. Time now 2015-May-27 23:58 UTC.
Position N 12°27' W 017°37'.
Warning: this ship's position is 26 days out of date.

Length 189 m; draft 12 m.

Type: Cargo ship. MMSI: 249617000.

Date/timePositionNaut miles runAvg speedWind from/ knotsBaromVisibWave heightAir tempDewpointWater temp
2015-May-01 02:33N 12°27' W 017°37'  
2015-Apr-24 21:20N 35°58' W 005°30'5 7.1
2015-Apr-24 20:33N 36°01' W 005°24'9 8.4
2015-Apr-24 19:31N 36°10' W 005°24'0 0.2
2015-Apr-24 18:10N 36°10' W 005°24'0 0.2
2015-Apr-24 17:31N 36°10' W 005°23'0 0.0
2015-Apr-24 15:31N 36°10' W 005°23'0 0.0
2015-Apr-24 14:31N 36°10' W 005°23'0 0.0
2015-Apr-24 13:31N 36°10' W 005°23'0 0.2
2015-Apr-24 12:25N 36°10' W 005°24'0 0.1
2015-Apr-24 11:31N 36°10' W 005°24'0 0.0
2015-Apr-24 10:19N 36°10' W 005°24'0 0.1
2015-Apr-24 09:31N 36°10' W 005°24'0 0.0
2015-Apr-24 08:31N 36°10' W 005°24'0 0.1
2015-Apr-24 06:30N 36°10' W 005°24'0 0.0
2015-Apr-24 05:33N 36°10' W 005°24'0 0.0
2015-Apr-24 04:33N 36°10' W 005°24'0 0.1
2015-Apr-24 03:12N 36°10' W 005°24'0 0.0
2015-Apr-24 02:33N 36°10' W 005°24'0 0.0
2015-Apr-24 00:33N 36°10' W 005°24'0 0.1
2015-Apr-23 23:09N 36°11' W 005°24'0 0.1
2015-Apr-23 22:21N 36°11' W 005°24'0 0.0
2015-Apr-23 21:33N 36°10' W 005°24'0 0.1
2015-Apr-23 20:33N 36°11' W 005°24'0 0.1
2015-Apr-23 19:24N 36°10' W 005°24'0 0.1
2015-Apr-23 18:27N 36°11' W 005°24'0 0.1
2015-Apr-23 17:33N 36°10' W 005°24'0 0.2
2015-Apr-23 16:24N 36°10' W 005°24'0 0.1
2015-Apr-23 15:09N 36°10' W 005°24'0 0.0
2015-Apr-23 14:30N 36°10' W 005°23'0 0.1
2015-Apr-23 11:28N 36°10' W 005°24'3 3.0
2015-Apr-23 10:32N 36°08' W 005°23'6 6.2
2015-Apr-23 09:33N 36°04' W 005°17'1 1.2
2015-Apr-23 08:33N 36°05' W 005°16'1 0.6
2015-Apr-23 07:33N 36°06' W 005°16'1 0.5
2015-Apr-23 05:34N 36°06' W 005°17'1 1.4
2015-Apr-23 04:33N 36°06' W 005°19'1 1.0
2015-Apr-23 03:34N 36°05' W 005°18'21010.3
2015-Apr-22 07:08N 37°09' W 001°09'711.6
2015-Apr-22 06:33N 37°14' W 001°03'1110.6
2015-Apr-22 05:33N 37°21' W 000°53'1110.5
2015-Apr-22 04:33N 37°28' W 000°43'1110.7
2015-Apr-22 03:33N 37°35' W 000°33'1110.7
2015-Apr-22 02:32N 37°44' W 000°26'1110.7
2015-Apr-22 01:32N 37°53' W 000°18'1110.5
2015-Apr-22 00:31N 38°02' W 000°11'1010.3
2015-Apr-21 23:31N 38°11' W 000°04'1110.6
2015-Apr-21 22:31N 38°20' E 000°04'9710.4
2015-Apr-21 13:14N 39°44' E 001°05'7 9.9
2015-Apr-21 12:33N 39°50' E 001°09'1010.4
2015-Apr-21 11:34N 39°59' E 001°15'1010.4
2015-Apr-21 10:33N 40°08' E 001°22'1110.5
2015-Apr-21 09:33N 40°17' E 001°29'1110.6
2015-Apr-21 08:33N 40°27' E 001°35'1010.2
2015-Apr-21 07:33N 40°35' E 001°42'1010.0
2015-Apr-21 06:33N 40°44' E 001°49'1010.0
2015-Apr-21 05:34N 40°53' E 001°53'1110.4
2015-Apr-21 04:33N 41°02' E 002°00'1010.6
2015-Apr-21 03:33N 41°12' E 002°07'  
Track history (hours):
 
Tides and Currents Weather Stations Pressure Air Temp Water Temp Dewpoint Dewpoint Depression Visibility Wind Speed Wind Dir Waves Ship Positions

Pretty Lady

Last reported at 2015-May-01 02:33 UTC. Time now 2015-May-27 23:58 UTC.
Position N 12°27' W 017°37'.
Warning: this ship's position is 26 days out of date.

Length 189 m; draft 12 m.

Type: Cargo ship. MMSI: 249617000.

Date/timePositionNaut miles runAvg speedWind from/ knotsBaromVisibWave heightAir tempDewpointWater temp
2015-May-01 02:33N 12°27' W 017°37'  
2015-Apr-24 21:20N 35°58' W 005°30'5 7.1
2015-Apr-24 20:33N 36°01' W 005°24'9 8.4
2015-Apr-24 19:31N 36°10' W 005°24'0 0.2
2015-Apr-24 18:10N 36°10' W 005°24'0 0.2
2015-Apr-24 17:31N 36°10' W 005°23'0 0.0
2015-Apr-24 15:31N 36°10' W 005°23'0 0.0
2015-Apr-24 14:31N 36°10' W 005°23'0 0.0
2015-Apr-24 13:31N 36°10' W 005°23'0 0.2
2015-Apr-24 12:25N 36°10' W 005°24'0 0.1
2015-Apr-24 11:31N 36°10' W 005°24'0 0.0
2015-Apr-24 10:19N 36°10' W 005°24'0 0.1
2015-Apr-24 09:31N 36°10' W 005°24'0 0.0
2015-Apr-24 08:31N 36°10' W 005°24'0 0.1
2015-Apr-24 06:30N 36°10' W 005°24'0 0.0
2015-Apr-24 05:33N 36°10' W 005°24'0 0.0
2015-Apr-24 04:33N 36°10' W 005°24'0 0.1
2015-Apr-24 03:12N 36°10' W 005°24'0 0.0
2015-Apr-24 02:33N 36°10' W 005°24'0 0.0
2015-Apr-24 00:33N 36°10' W 005°24'0 0.1
2015-Apr-23 23:09N 36°11' W 005°24'0 0.1
2015-Apr-23 22:21N 36°11' W 005°24'0 0.0
2015-Apr-23 21:33N 36°10' W 005°24'0 0.1
2015-Apr-23 20:33N 36°11' W 005°24'0 0.1
2015-Apr-23 19:24N 36°10' W 005°24'0 0.1
2015-Apr-23 18:27N 36°11' W 005°24'0 0.1
2015-Apr-23 17:33N 36°10' W 005°24'0 0.2
2015-Apr-23 16:24N 36°10' W 005°24'0 0.1
2015-Apr-23 15:09N 36°10' W 005°24'0 0.0
2015-Apr-23 14:30N 36°10' W 005°23'0 0.1
2015-Apr-23 11:28N 36°10' W 005°24'3 3.0
2015-Apr-23 10:32N 36°08' W 005°23'6 6.2
2015-Apr-23 09:33N 36°04' W 005°17'1 1.2
2015-Apr-23 08:33N 36°05' W 005°16'1 0.6
2015-Apr-23 07:33N 36°06' W 005°16'1 0.5
2015-Apr-23 05:34N 36°06' W 005°17'1 1.4
2015-Apr-23 04:33N 36°06' W 005°19'1 1.0
2015-Apr-23 03:34N 36°05' W 005°18'21010.3
2015-Apr-22 07:08N 37°09' W 001°09'711.6
2015-Apr-22 06:33N 37°14' W 001°03'1110.6
2015-Apr-22 05:33N 37°21' W 000°53'1110.5
2015-Apr-22 04:33N 37°28' W 000°43'1110.7
2015-Apr-22 03:33N 37°35' W 000°33'1110.7
2015-Apr-22 02:32N 37°44' W 000°26'1110.7
2015-Apr-22 01:32N 37°53' W 000°18'1110.5
2015-Apr-22 00:31N 38°02' W 000°11'1010.3
2015-Apr-21 23:31N 38°11' W 000°04'1110.6
2015-Apr-21 22:31N 38°20' E 000°04'9710.4
2015-Apr-21 13:14N 39°44' E 001°05'7 9.9
2015-Apr-21 12:33N 39°50' E 001°09'1010.4
2015-Apr-21 11:34N 39°59' E 001°15'1010.4
2015-Apr-21 10:33N 40°08' E 001°22'1110.5
2015-Apr-21 09:33N 40°17' E 001°29'1110.6
2015-Apr-21 08:33N 40°27' E 001°35'1010.2
2015-Apr-21 07:33N 40°35' E 001°42'1010.0
2015-Apr-21 06:33N 40°44' E 001°49'1010.0
2015-Apr-21 05:34N 40°53' E 001°53'1110.4
2015-Apr-21 04:33N 41°02' E 002°00'1010.6
2015-Apr-21 03:33N 41°12' E 002°07'  

Dump ship's entire track history